createdAt,value
2017-11-03T00:00:54.678Z,100898.83
2017-11-03T00:03:22.071Z,100900.17
2017-11-03T00:05:49.610Z,100893.95
2017-11-03T00:08:17.006Z,100898.08
2017-11-03T00:10:44.419Z,100896.84
2017-11-03T00:13:11.819Z,100895.20
2017-11-03T00:15:39.239Z,100900.97
2017-11-03T00:18:06.641Z,100902.80
2017-11-03T00:20:34.038Z,100907.77
2017-11-03T00:23:01.473Z,100909.68
2017-11-03T00:25:28.891Z,100903.38
2017-11-03T00:27:56.322Z,100906.48
2017-11-03T00:30:23.719Z,100909.25
2017-11-03T00:32:51.203Z,100907.52
2017-11-03T00:35:18.607Z,100910.00
2017-11-03T00:37:46.011Z,100910.58
2017-11-03T00:40:13.467Z,100905.70
2017-11-03T00:42:40.871Z,100907.98
2017-11-03T00:45:08.381Z,100909.95
2017-11-03T00:47:35.779Z,100914.00
2017-11-03T00:50:03.315Z,100917.93
2017-11-03T00:52:30.742Z,100913.50
2017-11-03T00:54:58.147Z,100912.16
2017-11-03T00:57:25.551Z,100914.53
2017-11-03T00:59:52.947Z,100923.13
2017-11-03T01:02:20.375Z,100915.41
2017-11-03T01:04:47.772Z,100918.70
2017-11-03T01:07:15.286Z,100914.27
2017-11-03T01:09:42.679Z,100914.14
2017-11-03T01:12:10.103Z,100913.00
2017-11-03T01:14:37.515Z,100914.81
2017-11-03T01:17:05.016Z,100920.94
2017-11-03T01:19:32.423Z,100910.26
2017-11-03T01:21:59.824Z,100913.02
2017-11-03T01:24:27.222Z,100914.22
2017-11-03T01:26:54.623Z,100919.72
2017-11-03T01:29:22.031Z,100920.09
2017-11-03T01:31:49.422Z,100928.31
2017-11-03T01:34:16.899Z,100922.50
2017-11-03T01:36:44.351Z,100931.28
2017-11-03T01:39:11.747Z,100930.73
2017-11-03T01:41:39.148Z,100922.91
2017-11-03T01:44:06.554Z,100931.87
2017-11-03T01:46:33.942Z,100931.33
2017-11-03T01:49:01.424Z,100927.54
2017-11-03T01:51:28.900Z,100931.98
2017-11-03T01:53:56.290Z,100938.88
2017-11-03T01:56:23.795Z,100943.73
2017-11-03T01:58:51.227Z,100943.80
2017-11-03T02:01:18.716Z,100946.03
2017-11-03T02:03:46.168Z,100945.42
2017-11-03T02:06:13.574Z,100951.02
2017-11-03T02:08:40.962Z,100953.51
2017-11-03T02:11:08.367Z,100946.03
2017-11-03T02:13:35.754Z,100947.25
2017-11-03T02:16:03.160Z,100945.11
2017-11-03T02:18:30.602Z,100951.03
2017-11-03T02:20:58.010Z,100949.23
2017-11-03T02:23:25.398Z,100951.55
2017-11-03T02:25:52.863Z,100955.66
2017-11-03T02:28:20.251Z,100955.48
2017-11-03T02:30:47.655Z,100952.44
2017-11-03T02:33:15.130Z,100949.41
2017-11-03T02:35:42.526Z,100957.16
2017-11-03T02:38:09.947Z,100952.67
2017-11-03T02:40:37.404Z,100956.85
2017-11-03T02:43:04.826Z,100961.28
2017-11-03T02:45:32.235Z,100956.43
2017-11-03T02:47:59.671Z,100954.39
2017-11-03T02:50:27.130Z,100956.72
2017-11-03T02:52:54.522Z,100956.95
2017-11-03T02:55:21.922Z,100952.81
2017-11-03T02:57:49.310Z,100947.41
2017-11-03T03:00:16.716Z,100954.34
2017-11-03T03:02:44.111Z,100954.99
2017-11-03T03:05:11.523Z,100955.23
2017-11-03T03:07:38.911Z,100956.56
2017-11-03T03:10:06.370Z,100958.45
2017-11-03T03:12:33.815Z,100958.02
2017-11-03T03:15:01.280Z,100960.86
2017-11-03T03:17:28.741Z,100953.80
2017-11-03T03:19:56.124Z,100958.26
2017-11-03T03:22:23.553Z,100957.41
2017-11-03T03:24:50.945Z,100957.03
2017-11-03T03:27:18.350Z,100961.47
2017-11-03T03:29:45.815Z,100961.74
2017-11-03T03:32:13.215Z,100961.06
2017-11-03T03:34:40.627Z,100962.61
2017-11-03T03:37:08.083Z,100968.00
2017-11-03T03:39:35.462Z,100963.04
2017-11-03T03:42:02.862Z,100963.08
2017-11-03T03:44:30.257Z,100973.35
2017-11-03T03:46:57.665Z,100967.63
2017-11-03T03:49:25.055Z,100970.42
2017-11-03T03:51:52.477Z,100971.48
2017-11-03T03:54:19.871Z,100978.17
2017-11-03T03:56:47.267Z,100979.95
2017-11-03T03:59:14.684Z,100983.02
2017-11-03T04:01:42.074Z,100985.34
2017-11-03T04:04:09.475Z,100984.02
2017-11-03T04:06:36.866Z,100982.48
2017-11-03T04:09:04.283Z,100988.17
2017-11-03T04:11:31.758Z,100985.00
2017-11-03T04:13:59.218Z,100979.08
2017-11-03T04:16:26.607Z,100975.42
2017-11-03T04:18:54.026Z,100981.00
2017-11-03T04:21:21.487Z,100984.53
2017-11-03T04:23:48.931Z,100981.80
2017-11-03T04:26:16.403Z,100981.27
2017-11-03T04:28:43.865Z,100977.11
2017-11-03T04:31:11.255Z,100982.36
2017-11-03T04:33:38.754Z,100982.74
2017-11-03T04:36:06.219Z,100987.23
2017-11-03T04:38:33.619Z,100988.50
2017-11-03T04:41:01.030Z,100992.25
2017-11-03T04:43:28.439Z,100993.64
2017-11-03T04:45:55.827Z,100988.94
2017-11-03T04:48:23.291Z,100996.98
2017-11-03T04:50:50.746Z,100989.03
2017-11-03T04:53:18.143Z,100996.49
2017-11-03T04:55:45.584Z,101001.24
2017-11-03T04:58:12.970Z,100995.05
2017-11-03T05:00:40.486Z,100994.87
2017-11-03T05:03:07.914Z,100998.59
2017-11-03T05:05:35.306Z,100996.57
2017-11-03T05:08:02.707Z,100995.69
2017-11-03T05:10:30.113Z,100993.41
2017-11-03T05:12:57.555Z,100991.03
2017-11-03T05:15:25.006Z,100991.31
2017-11-03T05:17:52.407Z,100994.26
2017-11-03T05:20:19.808Z,100992.95
2017-11-03T05:22:47.203Z,100991.48
2017-11-03T05:25:14.639Z,100986.56
2017-11-03T05:27:42.103Z,100990.73
2017-11-03T05:30:09.513Z,100993.62
2017-11-03T05:32:37.005Z,100989.96
2017-11-03T05:35:04.461Z,100992.60
2017-11-03T05:37:31.859Z,100996.30
2017-11-03T05:39:59.253Z,100997.86
2017-11-03T05:42:26.643Z,100997.02
2017-11-03T05:44:54.050Z,100990.86
2017-11-03T05:47:21.451Z,100994.88
2017-11-03T05:52:12.343Z,100998.98
2017-11-03T05:54:39.816Z,100999.27
2017-11-03T05:57:07.267Z,100997.69
2017-11-03T05:59:34.722Z,100995.48
2017-11-03T06:02:02.131Z,100992.05
2017-11-03T06:04:29.530Z,100993.81
2017-11-03T06:06:56.918Z,100992.91
2017-11-03T06:09:24.348Z,101002.58
2017-11-03T06:11:51.747Z,101004.02
2017-11-03T06:14:19.151Z,101007.08
2017-11-03T06:16:46.562Z,101005.37
2017-11-03T06:19:13.958Z,101007.05
2017-11-03T06:21:41.367Z,101009.21
2017-11-03T06:24:08.778Z,101003.59
2017-11-03T06:26:36.187Z,101007.41
2017-11-03T06:29:03.688Z,101003.52
2017-11-03T06:31:31.086Z,101008.80
2017-11-03T06:33:58.497Z,101005.09
2017-11-03T06:36:25.890Z,101012.67
2017-11-03T06:38:53.315Z,101017.22
2017-11-03T06:41:20.711Z,101022.09
2017-11-03T06:43:48.106Z,101023.18
2017-11-03T06:46:15.506Z,101026.61
2017-11-03T06:48:42.903Z,101023.45
2017-11-03T06:51:10.306Z,101025.27
2017-11-03T06:53:37.701Z,101030.13
2017-11-03T06:56:05.096Z,101027.09
2017-11-03T06:58:32.565Z,101025.34
2017-11-03T07:00:59.957Z,101030.63
2017-11-03T07:03:27.362Z,101035.50
2017-11-03T07:05:54.819Z,101029.98
2017-11-03T07:08:22.273Z,101039.08
2017-11-03T07:10:49.738Z,101041.48
2017-11-03T07:13:17.142Z,101044.70
2017-11-03T07:15:44.534Z,101042.17
2017-11-03T07:18:11.994Z,101034.54
2017-11-03T07:20:39.450Z,101045.59
2017-11-03T07:23:06.876Z,101042.12
2017-11-03T07:25:34.255Z,101047.34
2017-11-03T07:28:01.681Z,101054.81
2017-11-03T07:30:29.078Z,101045.74
2017-11-03T07:32:56.479Z,101045.00
2017-11-03T07:35:23.871Z,101050.03
2017-11-03T07:37:51.268Z,101050.25
2017-11-03T07:40:18.678Z,101055.17
2017-11-03T07:42:46.098Z,101043.00
2017-11-03T07:45:13.498Z,101045.47
2017-11-03T07:47:40.910Z,101043.19
2017-11-03T07:50:08.367Z,101047.67
2017-11-03T07:52:35.766Z,101048.77
2017-11-03T07:55:03.171Z,101044.81
2017-11-03T07:57:30.580Z,101044.03
2017-11-03T07:59:57.971Z,101052.08
2017-11-03T08:02:25.384Z,101052.67
2017-11-03T08:04:52.778Z,101056.20
2017-11-03T08:07:20.174Z,101051.65
2017-11-03T08:09:47.576Z,101046.13
2017-11-03T08:12:14.972Z,101052.80
2017-11-03T08:14:42.374Z,101057.55
2017-11-03T08:17:09.778Z,101050.81
2017-11-03T08:19:37.187Z,101050.99
2017-11-03T08:22:04.690Z,101054.59
2017-11-03T08:24:32.102Z,101052.97
2017-11-03T08:26:59.499Z,101065.47
2017-11-03T08:29:26.907Z,101060.47
2017-11-03T08:31:54.302Z,101066.14
2017-11-03T08:34:21.726Z,101061.74
2017-11-03T08:36:49.119Z,101067.09
2017-11-03T08:39:16.530Z,101066.08
2017-11-03T08:41:43.927Z,101063.48
2017-11-03T08:44:11.335Z,101073.74
2017-11-03T08:46:38.742Z,101072.68
2017-11-03T08:49:06.202Z,101076.97
2017-11-03T08:51:33.591Z,101070.59
2017-11-03T08:54:00.990Z,101074.42
2017-11-03T08:56:28.402Z,101074.16
2017-11-03T08:58:55.802Z,101085.35
2017-11-03T09:01:23.202Z,101081.91
2017-11-03T09:03:50.612Z,101075.72
2017-11-03T09:06:18.086Z,101079.44
2017-11-03T09:08:45.478Z,101081.31
2017-11-03T09:11:12.882Z,101075.06
2017-11-03T09:13:40.279Z,101074.10
2017-11-03T09:16:07.706Z,101075.55
2017-11-03T09:18:35.162Z,101078.77
2017-11-03T09:21:02.562Z,101080.20
2017-11-03T09:23:29.979Z,101081.36
2017-11-03T09:25:57.390Z,101073.60
2017-11-03T09:28:24.782Z,101083.92
2017-11-03T09:30:52.195Z,101086.87
2017-11-03T09:33:19.594Z,101083.13
2017-11-03T09:35:46.994Z,101081.28
2017-11-03T09:38:14.391Z,101083.38
2017-11-03T09:40:41.839Z,101080.91
2017-11-03T09:43:09.236Z,101078.86
2017-11-03T09:45:36.630Z,101079.53
2017-11-03T09:48:04.087Z,101081.75
2017-11-03T09:50:31.496Z,101077.21
2017-11-03T09:52:58.891Z,101081.05
2017-11-03T09:55:26.403Z,101083.67
2017-11-03T09:57:53.802Z,101082.09
2017-11-03T10:00:21.202Z,101081.43
2017-11-03T10:02:48.587Z,101075.17
2017-11-03T10:05:15.991Z,101074.75
2017-11-03T10:07:43.378Z,101077.02
2017-11-03T10:10:10.786Z,101072.73
2017-11-03T10:12:38.179Z,101071.16
2017-11-03T10:15:05.601Z,101069.17
2017-11-03T10:17:32.990Z,101072.23
2017-11-03T10:20:00.383Z,101068.48
2017-11-03T10:22:27.806Z,101067.45
2017-11-03T10:24:55.202Z,101063.67
2017-11-03T10:27:22.609Z,101061.31
2017-11-03T10:29:50.079Z,101057.06
2017-11-03T10:32:17.492Z,101054.34
2017-11-03T10:34:44.886Z,101055.31
2017-11-03T10:37:12.287Z,101052.45
2017-11-03T10:39:39.694Z,101049.78
2017-11-03T10:42:07.173Z,101054.47
2017-11-03T10:44:34.546Z,101043.02
2017-11-03T10:47:01.963Z,101044.41
2017-11-03T10:49:29.459Z,101041.69
2017-11-03T10:51:56.871Z,101043.67
2017-11-03T10:54:24.306Z,101034.27
2017-11-03T10:56:51.715Z,101038.03
2017-11-03T10:59:19.147Z,101027.16
2017-11-03T11:01:46.632Z,101031.39
2017-11-03T11:04:14.030Z,101036.80
2017-11-03T11:06:41.439Z,101032.20
2017-11-03T11:09:08.866Z,101033.28
2017-11-03T11:11:36.346Z,101025.80
2017-11-03T11:16:36.618Z,101025.70
2017-11-03T11:19:04.007Z,101024.90
2017-11-03T11:21:31.483Z,101029.52
2017-11-03T11:23:58.887Z,101016.77
2017-11-03T11:26:26.282Z,101016.71
2017-11-03T11:28:53.677Z,101018.56
2017-11-03T11:31:21.073Z,101017.42
2017-11-03T11:33:48.554Z,101020.50
2017-11-03T11:36:15.954Z,101019.80
2017-11-03T11:38:43.354Z,101021.30
2017-11-03T11:41:10.831Z,101011.88
2017-11-03T11:43:38.260Z,101008.52
2017-11-03T11:46:05.655Z,101005.61
2017-11-03T11:48:33.101Z,100998.23
2017-11-03T11:51:00.487Z,100997.97
2017-11-03T11:53:27.902Z,100994.09
2017-11-03T11:55:55.310Z,100987.53
2017-11-03T11:58:22.729Z,100991.30
2017-11-03T12:00:50.136Z,100980.36
2017-11-03T12:03:17.628Z,100985.25
2017-11-03T12:05:45.023Z,100981.36
2017-11-03T12:08:12.424Z,100975.34
2017-11-03T12:10:39.818Z,100975.72
2017-11-03T12:13:07.202Z,100979.59
2017-11-03T12:15:34.712Z,100975.18
2017-11-03T12:18:02.101Z,100976.31
2017-11-03T12:20:29.494Z,100974.02
2017-11-03T12:22:56.942Z,100970.01
2017-11-03T12:25:24.431Z,100966.10
2017-11-03T12:27:51.854Z,100963.84
2017-11-03T12:30:19.288Z,100963.37
2017-11-03T12:32:46.696Z,100967.61
2017-11-03T12:35:14.098Z,100959.54
2017-11-03T12:37:41.500Z,100962.70
2017-11-03T12:40:08.991Z,100956.89
2017-11-03T12:42:36.431Z,100963.14
2017-11-03T12:45:03.839Z,100962.20
2017-11-03T12:47:31.246Z,100960.70
2017-11-03T12:49:58.702Z,100959.61
2017-11-03T12:52:26.171Z,100967.12
2017-11-03T12:54:53.610Z,100963.59
2017-11-03T12:57:21.089Z,100959.77
2017-11-03T12:59:48.473Z,100963.91
2017-11-03T13:02:15.874Z,100959.78
2017-11-03T13:04:43.339Z,100964.69
2017-11-03T13:07:10.737Z,100958.94
2017-11-03T13:09:38.158Z,100955.72
2017-11-03T13:12:05.586Z,100948.53
2017-11-03T13:14:33.072Z,100949.72
2017-11-03T13:17:00.458Z,100944.45
2017-11-03T13:19:27.851Z,100940.39
2017-11-03T13:21:55.245Z,100945.14
2017-11-03T13:24:22.754Z,100943.60
2017-11-03T13:26:50.146Z,100942.31
2017-11-03T13:29:17.530Z,100937.31
2017-11-03T13:31:44.926Z,100937.00
2017-11-03T13:34:12.321Z,100933.97
2017-11-03T13:36:39.731Z,100943.29
2017-11-03T13:39:07.145Z,100930.90
2017-11-03T13:41:34.599Z,100926.41
2017-11-03T13:44:01.998Z,100923.31
2017-11-03T13:46:29.370Z,100927.42
2017-11-03T13:48:56.762Z,100926.66
2017-11-03T13:51:24.205Z,100922.23
2017-11-03T13:53:51.676Z,100920.88
2017-11-03T13:56:19.110Z,100916.31
2017-11-03T13:58:46.572Z,100913.39
2017-11-03T14:01:13.971Z,100914.80
2017-11-03T14:03:41.362Z,100910.18
2017-11-03T14:06:08.834Z,100909.27
2017-11-03T14:08:36.350Z,100911.55
2017-11-03T14:11:03.736Z,100906.95
2017-11-03T14:13:31.202Z,100902.49
2017-11-03T14:15:58.659Z,100901.70
2017-11-03T14:18:26.058Z,100893.79
2017-11-03T14:20:53.470Z,100895.27
2017-11-03T14:23:20.864Z,100892.92
2017-11-03T14:25:48.287Z,100896.80
2017-11-03T14:28:15.695Z,100893.54
2017-11-03T14:30:43.087Z,100894.56
2017-11-03T14:33:10.554Z,100886.67
2017-11-03T14:35:38.021Z,100889.41
2017-11-03T14:38:05.391Z,100881.78
2017-11-03T14:40:32.819Z,100885.97
2017-11-03T14:43:00.274Z,100882.08
2017-11-03T14:45:27.675Z,100870.05
2017-11-03T14:47:55.086Z,100877.70
2017-11-03T14:50:22.484Z,100876.09
2017-11-03T14:52:49.872Z,100876.21
2017-11-03T14:55:17.263Z,100871.94
2017-11-03T14:57:44.714Z,100868.02
2017-11-03T15:00:12.172Z,100870.23
2017-11-03T15:02:39.559Z,100866.73
2017-11-03T15:05:06.970Z,100861.73
2017-11-03T15:07:34.370Z,100866.28
2017-11-03T15:10:01.762Z,100871.84
2017-11-03T15:12:29.255Z,100865.08
2017-11-03T15:14:56.658Z,100867.35
2017-11-03T15:17:24.054Z,100873.20
2017-11-03T15:19:51.460Z,100870.52
2017-11-03T15:22:18.851Z,100863.36
2017-11-03T15:24:46.336Z,100863.32
2017-11-03T15:27:13.787Z,100869.34
2017-11-03T15:29:41.247Z,100869.36
2017-11-03T15:32:08.702Z,100868.72
2017-11-03T15:34:36.175Z,100864.51
2017-11-03T15:37:03.574Z,100862.92
2017-11-03T15:39:30.979Z,100863.02
2017-11-03T15:41:58.430Z,100857.52
2017-11-03T15:44:25.882Z,100857.65
2017-11-03T15:46:53.274Z,100861.77
2017-11-03T15:49:20.699Z,100863.23
2017-11-03T15:51:48.154Z,100854.08
2017-11-03T15:54:15.538Z,100848.34
2017-11-03T15:56:42.934Z,100849.95
2017-11-03T15:59:10.414Z,100856.41
2017-11-03T16:01:37.830Z,100845.59
2017-11-03T16:04:05.249Z,100848.13
2017-11-03T16:06:32.643Z,100848.79
2017-11-03T16:09:00.038Z,100849.41
2017-11-03T16:11:27.439Z,100848.34
2017-11-03T16:13:54.834Z,100839.78
2017-11-03T16:16:22.302Z,100840.33
2017-11-03T16:18:49.701Z,100848.61
2017-11-03T16:21:17.119Z,100848.22
2017-11-03T16:23:44.571Z,100846.65
2017-11-03T16:26:12.036Z,100838.58
2017-11-03T16:28:39.423Z,100841.65
2017-11-03T16:31:06.831Z,100840.91
2017-11-03T16:33:34.226Z,100837.36
2017-11-03T16:36:01.658Z,100837.37
2017-11-03T16:38:29.043Z,100835.66
2017-11-03T16:40:56.471Z,100834.55
2017-11-03T16:43:23.918Z,100831.09
2017-11-03T16:45:51.354Z,100836.94
2017-11-03T16:48:18.835Z,100835.20
2017-11-03T16:50:46.290Z,100836.73
2017-11-03T16:53:13.746Z,100836.46
2017-11-03T16:55:41.214Z,100828.20
2017-11-03T16:58:08.614Z,100834.94
2017-11-03T17:00:36.007Z,100839.03
2017-11-03T17:03:03.412Z,100836.11
2017-11-03T17:05:30.808Z,100839.66
2017-11-03T17:07:58.302Z,100830.53
2017-11-03T17:10:25.698Z,100828.41
2017-11-03T17:12:53.105Z,100834.31
2017-11-03T17:15:20.494Z,100830.95
2017-11-03T17:17:47.903Z,100827.34
2017-11-03T17:20:15.300Z,100831.16
2017-11-03T17:22:42.690Z,100831.50
2017-11-03T17:25:10.087Z,100830.48
2017-11-03T17:27:37.503Z,100829.22
2017-11-03T17:30:04.904Z,100828.67
2017-11-03T17:32:32.290Z,100828.55
2017-11-03T17:34:59.759Z,100833.49
2017-11-03T17:37:27.159Z,100837.73
2017-11-03T17:39:54.543Z,100831.98
2017-11-03T17:42:21.935Z,100835.77
2017-11-03T17:44:49.345Z,100829.90
2017-11-03T17:47:16.735Z,100827.72
2017-11-03T17:49:44.132Z,100818.80
2017-11-03T17:52:11.583Z,100818.64
2017-11-03T17:54:38.983Z,100814.00
2017-11-03T17:57:06.475Z,100803.95
2017-11-03T17:59:33.882Z,100816.63
2017-11-03T18:02:01.284Z,100814.88
2017-11-03T18:04:28.718Z,100808.41
2017-11-03T18:06:56.178Z,100810.84
2017-11-03T18:09:23.579Z,100812.72
2017-11-03T18:11:51.003Z,100817.50
2017-11-03T18:14:18.407Z,100815.74
2017-11-03T18:16:45.818Z,100813.95
2017-11-03T18:19:13.223Z,100815.25
2017-11-03T18:21:40.621Z,100808.48
2017-11-03T18:24:08.140Z,100820.55
2017-11-03T18:26:35.521Z,100822.94
2017-11-03T18:29:02.919Z,100827.71
2017-11-03T18:31:30.314Z,100819.31
2017-11-03T18:33:57.749Z,100819.46
2017-11-03T18:36:25.142Z,100820.66
2017-11-03T18:38:52.543Z,100820.81
2017-11-03T18:41:19.934Z,100816.41
2017-11-03T18:43:47.338Z,100820.91
2017-11-03T18:46:14.758Z,100810.48
2017-11-03T18:48:42.154Z,100810.83
2017-11-03T18:51:09.552Z,100817.33
2017-11-03T18:53:36.991Z,100813.76
2017-11-03T18:56:04.383Z,100807.00
2017-11-03T18:58:31.806Z,100799.32
2017-11-03T19:00:59.211Z,100799.20
2017-11-03T19:03:26.605Z,100800.22
2017-11-03T19:05:54.007Z,100802.81
2017-11-03T19:08:21.421Z,100802.91
2017-11-03T19:10:48.827Z,100799.14
2017-11-03T19:13:16.240Z,100798.81
2017-11-03T19:15:43.697Z,100791.62
2017-11-03T19:18:11.079Z,100797.96
2017-11-03T19:20:38.482Z,100796.19
2017-11-03T19:23:05.962Z,100799.74
2017-11-03T19:25:33.359Z,100796.23
2017-11-03T19:28:00.779Z,100795.81
2017-11-03T19:30:28.229Z,100796.89
2017-11-03T19:32:55.623Z,100801.22
2017-11-03T19:35:23.026Z,100802.89
2017-11-03T19:37:50.411Z,100797.91
2017-11-03T19:40:17.856Z,100803.80
2017-11-03T19:42:45.243Z,100799.80
2017-11-03T19:45:12.663Z,100801.30
2017-11-03T19:47:40.060Z,100797.42
2017-11-03T19:50:07.478Z,100795.61
2017-11-03T19:52:34.879Z,100792.06
2017-11-03T19:55:02.382Z,100792.40
2017-11-03T19:57:29.790Z,100793.75
2017-11-03T19:59:57.194Z,100791.69
2017-11-03T20:02:24.631Z,100785.92
2017-11-03T20:04:52.107Z,100782.99
2017-11-03T20:07:19.497Z,100785.19
2017-11-03T20:09:46.898Z,100783.92
2017-11-03T20:12:14.290Z,100790.16
2017-11-03T20:14:41.698Z,100790.83
2017-11-03T20:17:09.103Z,100788.72
2017-11-03T20:19:36.495Z,100790.19
2017-11-03T20:22:03.902Z,100789.09
2017-11-03T20:24:31.381Z,100784.77
2017-11-03T20:26:58.785Z,100785.25
2017-11-03T20:29:26.175Z,100785.05
2017-11-03T20:31:53.591Z,100780.75
2017-11-03T20:34:20.971Z,100789.03
2017-11-03T20:36:48.434Z,100788.87
2017-11-03T20:39:15.887Z,100787.62
2017-11-03T20:41:43.294Z,100786.98
2017-11-03T20:44:10.695Z,100782.25
2017-11-03T20:46:38.098Z,100784.25
2017-11-03T20:49:05.490Z,100787.88
2017-11-03T20:51:32.886Z,100784.32
2017-11-03T20:54:00.294Z,100785.78
2017-11-03T20:56:27.688Z,100789.27
2017-11-03T20:58:55.078Z,100788.40
2017-11-03T21:01:22.498Z,100785.14
2017-11-03T21:03:49.898Z,100781.92
2017-11-03T21:06:17.308Z,100782.62
2017-11-03T21:08:44.717Z,100782.53
2017-11-03T21:11:12.111Z,100775.99
2017-11-03T21:13:39.561Z,100772.73
2017-11-03T21:16:06.985Z,100768.77
2017-11-03T21:18:34.395Z,100772.83
2017-11-03T21:21:01.828Z,100767.77
2017-11-03T21:23:29.234Z,100765.01
2017-11-03T21:25:56.640Z,100766.80
2017-11-03T21:28:24.101Z,100759.55
2017-11-03T21:30:51.559Z,100765.66
2017-11-03T21:33:19.006Z,100762.52
2017-11-03T21:35:46.402Z,100764.16
2017-11-03T21:38:13.790Z,100761.98
2017-11-03T21:40:41.193Z,100758.41
2017-11-03T21:43:08.593Z,100756.55
2017-11-03T21:45:36.083Z,100757.88
2017-11-03T21:48:03.511Z,100748.07
2017-11-03T21:50:30.903Z,100748.73
2017-11-03T21:52:58.301Z,100745.09
2017-11-03T21:55:25.694Z,100745.57
2017-11-03T21:57:53.094Z,100749.81
2017-11-03T22:00:20.496Z,100747.29
2017-11-03T22:02:47.943Z,100746.33
2017-11-03T22:05:15.479Z,100744.94
2017-11-03T22:07:42.898Z,100739.89
2017-11-03T22:10:10.295Z,100741.45
2017-11-03T22:12:37.699Z,100738.86
2017-11-03T22:15:05.162Z,100735.01
2017-11-03T22:17:32.642Z,100737.14
2017-11-03T22:20:00.040Z,100734.85
2017-11-03T22:22:27.434Z,100736.17
2017-11-03T22:24:54.836Z,100735.30
2017-11-03T22:27:22.357Z,100736.28
2017-11-03T22:29:49.761Z,100729.45
2017-11-03T22:32:17.151Z,100730.36
2017-11-03T22:34:44.558Z,100732.19
2017-11-03T22:37:12.067Z,100724.17
2017-11-03T22:39:39.471Z,100727.83
2017-11-03T22:42:06.878Z,100724.40
2017-11-03T22:44:34.272Z,100719.41
2017-11-03T22:47:01.660Z,100719.11
2017-11-03T22:49:29.071Z,100719.14
2017-11-03T22:51:56.489Z,100715.52
2017-11-03T22:54:23.958Z,100720.38
2017-11-03T22:56:51.408Z,100719.13
2017-11-03T22:59:18.806Z,100709.67
2017-11-03T23:01:46.222Z,100707.17
2017-11-03T23:04:13.620Z,100708.62
2017-11-03T23:06:41.034Z,100710.86
2017-11-03T23:09:08.491Z,100717.52
2017-11-03T23:11:35.896Z,100718.70
2017-11-03T23:14:03.307Z,100711.86
2017-11-03T23:16:30.712Z,100704.44
2017-11-03T23:18:58.110Z,100701.14
2017-11-03T23:21:25.519Z,100698.08
2017-11-03T23:23:52.911Z,100700.10
2017-11-03T23:26:20.382Z,100697.09
2017-11-03T23:28:47.837Z,100693.67
2017-11-03T23:31:15.246Z,100699.30
2017-11-03T23:33:42.782Z,100698.59
2017-11-03T23:36:10.199Z,100696.77
2017-11-03T23:38:37.594Z,100690.75
2017-11-03T23:41:05.119Z,100690.41
2017-11-03T23:43:32.510Z,100681.31
2017-11-03T23:45:59.926Z,100684.22
2017-11-03T23:48:27.326Z,100682.91
2017-11-03T23:50:54.718Z,100677.52
2017-11-03T23:53:22.191Z,100673.95
2017-11-03T23:55:49.586Z,100681.06
2017-11-03T23:58:17.029Z,100685.56
